Norfolk, NE

4:32 AM CDT on May 07, 2015 (GMT -0500)
Stefan Memorial | | Change Station
CLOSE
Current Station
Airport
Location: Norfolk,
Elevation: 1549 ft
Nearby Weather Stations

Elev 1549 ft 41.99 °N, 97.44 °W | Updated 16 minutes ago

Overcast
Overcast
61 °F
Feels Like 61 °F
N
16
Wind Variable Wind from South

Today
High -- | Low -- °F
--% Chance of Precip.
Yesterday
High -- | Low -- °F
Precip. -- in
6:18 AM 8:34 PM
Waning Gibbous, 89% visible
Pressure 29.64 in
Visibility 10.0 miles
Clouds Mostly Cloudy 1000 ft
Mostly Cloudy 2400 ft
Overcast 9500 ft
Dew Point 59 °F
Humidity 93%
Rainfall 0.05 in
Snow Depth Not available.
UV 0 out of 12
Pollen 7.40 out of 12
Air Quality Not available.
Flu Activity Local Activity
SPECI KOFK 070916Z AUTO 17014KT 10SM BKN010 BKN024 OVC095 16/15 A2964 RMK AO2 RAE06 CIG 008V015 P0000 T01610150

More Conditions Fewer Conditions

Pressure 29.64 in
Visibility 10.0 miles
Clouds Mostly Cloudy 1000 ft
Mostly Cloudy 2400 ft
Overcast 9500 ft
Dew Point 59 °F
Humidity 93%
Rainfall 0.05 in
Snow Depth Not available.
UV 0 out of 12
Pollen 7.40 out of 12
Air Quality Not available.
Flu Activity Local Activity
SPECI KOFK 070916Z AUTO 17014KT 10SM BKN010 BKN024 OVC095 16/15 A2964 RMK AO2 RAE06 CIG 008V015 P0000 T01610150

More Conditions Fewer Conditions

10-Day Weather Forecast

Almanac

Astronomy

May. 07, 2015 Rise Set
Actual Time
Civil Twilight
Nautical Twilight
Astronomical Twilight
Moon
Length of Visible Light
Length of Day
Tomorrow will be .
, % of the Moon is Illuminated

Today's Extremes

State Highs State Lows

Community

WunderPhotos

Upload Photos

1,819,133 photos uploaded!

WunderBlogs® & News

Nearby

Air Quality

  Air Quality AQ Index Pollutant
Not available.

Snow Depth

Station Depth Elevation

Earthquake Activity

City Distance Mag. Time & Date
Minimum magnitude displayed is 2.5.

Coastal Water Temperatures

Place Temperature

Stations

Nearby Weather Stations

Station Location Temp. Windchill Dew Point Humidity Wind Precip. Elev Updated Type